Time;durP1;ratioP1;P1;durP2;ratioP2;P2;SDS_P1;SDS_P2;PMS_P1;PMS_P2;Temp;Humidity;BMP_temperature;BMP_pressure;BME280_temperature;BME280_humidity;BME280_pressure;Samples;Min_cycle;Max_cycle;Signal;HPM_P1;HPM_P2
2023/07/23 00:01:46;;;;;;;0.55;0.38;;;;;;;15.87;59.16;100591.13;5011053;28;20062;-76
2023/07/23 00:04:13;;;;;;;0.90;0.20;;;;;;;15.87;59.31;100591.13;5011374;28;20507;-77
2023/07/23 00:06:41;;;;;;;0.57;0.20;;;;;;;15.86;59.30;100587.63;5011295;28;20052;-76
2023/07/23 00:09:07;;;;;;;0.35;0.20;;;;;;;15.85;59.52;100588.56;5011145;28;20125;-76
2023/07/23 00:11:34;;;;;;;0.40;0.22;;;;;;;15.85;59.29;100588.56;5011372;28;20057;-77
2023/07/23 00:14:03;;;;;;;0.50;0.20;;;;;;;15.84;59.56;100581.56;5011046;28;20049;-76
2023/07/23 00:16:30;;;;;;;0.38;0.20;;;;;;;15.83;59.49;100584.28;5011681;28;20052;-76
2023/07/23 00:18:56;;;;;;;0.30;0.20;;;;;;;15.83;59.57;100579.00;5010580;28;20053;-77
2023/07/23 00:21:23;;;;;;;0.40;0.30;;;;;;;15.84;59.65;100580.72;5011167;28;20056;-76
2023/07/23 00:23:50;;;;;;;0.50;0.20;;;;;;;15.83;59.65;100585.13;5011362;28;20058;-76
2023/07/23 00:26:17;;;;;;;1.95;0.25;;;;;;;15.83;59.67;100585.13;5010526;28;20056;-77
2023/07/23 00:28:44;;;;;;;0.40;0.20;;;;;;;15.82;59.77;100583.41;5011032;28;20080;-76
2023/07/23 00:31:12;;;;;;;0.98;0.30;;;;;;;15.82;59.76;100575.50;5010796;28;20046;-77
2023/07/23 00:33:39;;;;;;;1.08;0.30;;;;;;;15.80;59.86;100577.38;5010349;28;20092;-77
2023/07/23 00:36:06;;;;;;;0.40;0.30;;;;;;;15.81;59.93;100576.44;5011018;28;20200;-77
2023/07/23 00:38:33;;;;;;;0.20;0.15;;;;;;;15.79;59.83;100569.50;5010517;28;20056;-76
2023/07/23 00:41:00;;;;;;;0.88;0.30;;;;;;;15.80;59.95;100569.47;5010997;28;20046;-77
2023/07/23 00:43:27;;;;;;;0.43;0.35;;;;;;;15.78;59.97;100573.09;5010202;28;20046;-77
2023/07/23 00:45:54;;;;;;;0.30;0.30;;;;;;;15.79;59.95;100573.00;5010732;28;20052;-76
2023/07/23 00:48:22;;;;;;;1.05;0.28;;;;;;;15.81;60.06;100571.16;5010657;28;20125;-77
2023/07/23 00:50:49;;;;;;;0.20;0.10;;;;;;;15.79;59.80;100573.00;5007979;28;20052;-77
2023/07/23 00:53:17;;;;;;;0.50;0.20;;;;;;;15.79;60.10;100570.38;5010363;28;20058;-76
2023/07/23 00:55:44;;;;;;;1.35;0.20;;;;;;;15.79;60.13;100573.00;5010095;28;20056;-76
2023/07/23 00:58:11;;;;;;;0.70;0.65;;;;;;;15.78;60.15;100566.03;5010088;28;20056;-77
2023/07/23 01:00:38;;;;;;;0.40;0.20;;;;;;;15.78;60.13;100573.09;5010208;28;20056;-76
2023/07/23 01:03:04;;;;;;;0.50;0.20;;;;;;;15.77;60.22;100568.72;5010091;28;20068;-76
2023/07/23 01:05:34;;;;;;;1.20;0.22;;;;;;;15.76;60.06;100567.88;5010225;28;20053;-76
2023/07/23 01:08:02;;;;;;;2.05;0.30;;;;;;;15.76;60.24;100572.28;5010439;28;20046;-76
2023/07/23 01:10:31;;;;;;;0.30;0.20;;;;;;;15.74;60.19;100567.09;5010020;28;20050;-76
2023/07/23 01:13:00;;;;;;;0.30;0.20;;;;;;;15.73;60.24;100570.63;5010078;28;20491;-76
2023/07/23 01:15:28;;;;;;;0.40;0.20;;;;;;;15.73;60.14;100573.28;5010432;28;20418;-76
2023/07/23 01:17:57;;;;;;;0.73;0.28;;;;;;;15.68;60.02;100569.97;5010328;28;20050;-76
2023/07/23 01:20:24;;;;;;;0.47;0.47;;;;;;;15.70;60.26;100578.66;5009999;28;20137;-76
2023/07/23 01:22:52;;;;;;;0.35;0.20;;;;;;;15.69;60.06;100577.81;5009868;28;20048;-75
2023/07/23 01:25:19;;;;;;;0.30;0.20;;;;;;;15.69;60.37;100584.88;5009834;28;20046;-76
2023/07/23 01:27:46;;;;;;;0.85;0.38;;;;;;;15.69;60.11;100582.22;5009596;28;20064;-76
2023/07/23 01:30:13;;;;;;;1.38;0.30;;;;;;;15.67;59.99;100581.41;5011226;28;20046;-77
2023/07/23 01:32:41;;;;;;;0.40;0.30;;;;;;;15.62;60.17;100581.59;5013747;28;20049;-76
2023/07/23 01:35:13;;;;;;;0.22;0.20;;;;;;;15.65;60.14;100586.75;5013664;28;20065;-76
2023/07/23 01:37:40;;;;;;;1.75;0.30;;;;;;;15.64;60.30;100581.53;5013344;28;20053;-76
2023/07/23 01:40:09;;;;;;;0.88;0.30;;;;;;;15.63;60.16;100583.31;5012862;28;20407;-76
2023/07/23 01:42:36;;;;;;;0.40;0.20;;;;;;;15.62;60.29;100584.22;5013579;28;20748;-76
2023/07/23 01:45:04;;;;;;;1.98;0.20;;;;;;;15.61;59.99;100587.78;5014139;28;20752;-76
2023/07/23 01:47:31;;;;;;;0.40;0.20;;;;;;;15.60;60.20;100582.59;5013615;28;20049;-77
2023/07/23 01:49:58;;;;;;;1.45;0.30;;;;;;;15.59;60.31;100586.97;5013802;28;20046;-76
2023/07/23 01:52:25;;;;;;;0.20;0.20;;;;;;;15.58;60.25;100580.03;5013390;28;20046;-76
2023/07/23 01:54:52;;;;;;;0.25;0.20;;;;;;;15.56;60.46;100581.84;5013246;28;20051;-76
2023/07/23 01:57:20;;;;;;;0.95;0.30;;;;;;;15.56;60.46;100587.13;5010475;28;20046;-77
2023/07/23 01:59:47;;;;;;;1.38;0.20;;;;;;;15.53;60.45;100587.25;5013659;28;20421;-78
2023/07/23 02:02:14;;;;;;;2.35;0.20;;;;;;;15.52;60.32;100589.03;5013181;28;20057;-77
2023/07/23 02:04:41;;;;;;;2.85;0.30;;;;;;;15.51;60.49;100584.69;5013730;28;20056;-76
2023/07/23 02:07:08;;;;;;;1.95;0.28;;;;;;;15.49;60.43;100586.53;5014016;28;20046;-74
2023/07/23 02:09:35;;;;;;;0.50;0.20;;;;;;;15.47;60.54;100580.47;5009800;28;20046;-75
2023/07/23 02:12:02;;;;;;;0.40;0.20;;;;;;;15.46;60.58;100581.41;5011417;28;20045;-74
2023/07/23 02:14:30;;;;;;;1.27;0.20;;;;;;;15.45;60.56;100578.81;5010796;28;20074;-75
2023/07/23 02:16:57;;;;;;;1.05;0.20;;;;;;;15.35;60.34;100567.81;5011215;28;20050;-75
2023/07/23 02:19:24;;;;;;;1.70;0.20;;;;;;;15.41;60.57;100582.50;5010716;28;20050;-74
2023/07/23 02:21:51;;;;;;;0.68;0.35;;;;;;;15.39;60.38;100584.34;5010824;28;20435;-75
2023/07/23 02:24:18;;;;;;;0.45;0.20;;;;;;;15.24;60.61;100560.38;5010295;28;20050;-75
2023/07/23 02:26:45;;;;;;;0.95;0.20;;;;;;;15.36;60.58;100580.06;5011309;28;20050;-75
2023/07/23 02:29:12;;;;;;;0.32;0.20;;;;;;;15.33;60.78;100579.34;5010869;28;20046;-74
2023/07/23 02:31:40;;;;;;;1.75;0.20;;;;;;;15.30;60.69;100575.03;5010033;28;20053;-74
2023/07/23 02:34:07;;;;;;;0.43;0.20;;;;;;;15.29;60.54;100581.25;5010547;28;21027;-74
2023/07/23 02:36:35;;;;;;;2.22;0.20;;;;;;;15.28;60.67;100583.03;5010093;28;20077;-74
2023/07/23 02:39:02;;;;;;;0.35;0.20;;;;;;;15.16;60.72;100561.59;5010555;28;20050;-74
2023/07/23 02:41:29;;;;;;;1.25;0.20;;;;;;;15.25;60.79;100585.78;5009874;28;20068;-75
2023/07/23 02:43:56;;;;;;;1.77;0.40;;;;;;;15.24;60.77;100583.19;5010727;28;20395;-74
2023/07/23 02:46:23;;;;;;;0.40;0.10;;;;;;;15.23;60.73;100578.88;5010084;28;20050;-73
2023/07/23 02:48:51;;;;;;;0.32;0.20;;;;;;;15.22;60.66;100574.50;5009919;28;20046;-73
2023/07/23 02:51:19;;;;;;;0.43;0.20;;;;;;;15.18;60.91;100580.81;5009702;28;20061;-74
2023/07/23 02:53:46;;;;;;;0.20;0.20;;;;;;;15.18;60.71;100579.03;5008870;28;20041;-73
2023/07/23 02:56:12;;;;;;;0.20;0.10;;;;;;;15.14;60.67;100571.31;5008652;28;20133;-73
2023/07/23 02:58:39;;;;;;;1.20;0.20;;;;;;;15.15;60.53;100587.06;5009567;28;20044;-74
2023/07/23 03:01:06;;;;;;;0.47;0.43;;;;;;;15.12;60.77;100581.06;5009689;28;20107;-73
2023/07/23 03:03:33;;;;;;;0.85;0.20;;;;;;;15.09;60.55;100576.78;5009748;28;20064;-73
2023/07/23 03:06:01;;;;;;;2.65;0.20;;;;;;;15.09;60.62;100578.56;5009814;28;20056;-73
2023/07/23 03:08:29;;;;;;;0.20;0.20;;;;;;;15.07;60.77;100579.47;5009028;28;20141;-73
2023/07/23 03:10:56;;;;;;;0.40;0.20;;;;;;;15.04;60.68;100576.97;5009654;28;20050;-73
2023/07/23 03:13:23;;;;;;;1.08;0.20;;;;;;;15.00;60.71;100580.66;5009215;28;20060;-73
2023/07/23 03:15:50;;;;;;;1.90;0.20;;;;;;;14.98;60.66;100577.22;5009650;28;20132;-73
2023/07/23 03:18:17;;;;;;;0.30;0.28;;;;;;;14.97;60.85;100578.16;5009317;28;20068;-73
2023/07/23 03:20:44;;;;;;;0.20;0.17;;;;;;;14.95;60.68;100582.59;5009333;28;20061;-73
2023/07/23 03:23:12;;;;;;;2.50;0.17;;;;;;;14.93;60.75;100581.78;5008551;28;20053;-74
2023/07/23 03:25:39;;;;;;;1.15;0.20;;;;;;;14.90;60.86;100581.91;5008487;28;20042;-72
2023/07/23 03:28:06;;;;;;;3.17;0.35;;;;;;;14.88;60.86;100583.75;5009349;28;20057;-73
2023/07/23 03:30:33;;;;;;;0.10;0.10;;;;;;;14.86;60.97;100585.59;5008951;28;20058;-73
2023/07/23 03:33:00;;;;;;;1.77;0.20;;;;;;;14.84;60.98;100587.41;5009408;28;20042;-73
2023/07/23 03:35:27;;;;;;;0.75;0.20;;;;;;;14.81;60.99;100585.75;5008716;28;20064;-73
2023/07/23 03:37:54;;;;;;;1.92;0.22;;;;;;;14.79;61.12;100592.84;5009023;28;20050;-73
2023/07/23 03:40:23;;;;;;;1.40;0.40;;;;;;;14.77;61.04;100585.94;5008812;28;20046;-73
2023/07/23 03:42:49;;;;;;;0.50;0.20;;;;;;;14.75;61.20;100586.00;5008983;28;20137;-73
2023/07/23 03:45:16;;;;;;;2.70;0.30;;;;;;;14.74;61.35;100586.06;5008934;28;20068;-73
2023/07/23 03:47:43;;;;;;;2.05;0.10;;;;;;;14.71;61.62;100587.03;5008952;28;20058;-73
2023/07/23 03:50:10;;;;;;;0.50;0.20;;;;;;;14.70;61.69;100581.84;5008435;28;20046;-73
2023/07/23 03:52:37;;;;;;;1.15;0.20;;;;;;;14.68;61.79;100584.50;5008425;28;20219;-73
2023/07/23 03:55:05;;;;;;;1.38;0.20;;;;;;;14.67;61.95;100579.34;5008082;28;20049;-73
2023/07/23 03:57:33;;;;;;;0.47;0.13;;;;;;;14.67;62.11;100584.59;5008639;28;20404;-73
2023/07/23 04:00:00;;;;;;;0.30;0.20;;;;;;;14.67;62.15;100581.97;5008184;28;20537;-73
2023/07/23 04:02:27;;;;;;;0.70;0.15;;;;;;;14.67;62.06;100579.34;5008534;28;20437;-73
2023/07/23 04:04:54;;;;;;;1.50;0.20;;;;;;;14.64;62.28;100580.31;5007840;28;20083;-73
2023/07/23 04:07:21;;;;;;;1.20;0.20;;;;;;;14.68;62.18;100575.78;5007664;28;20449;-74
2023/07/23 04:09:48;;;;;;;0.47;0.20;;;;;;;14.68;62.39;100578.41;5008126;28;20049;-73
2023/07/23 04:12:15;;;;;;;1.15;0.30;;;;;;;14.71;62.13;100575.66;5008642;28;20052;-73
2023/07/23 04:14:43;;;;;;;2.10;0.20;;;;;;;14.67;62.35;100571.44;5006643;28;20042;-73
2023/07/23 04:17:10;;;;;;;0.70;0.20;;;;;;;14.74;62.46;100586.06;5006481;28;20100;-73
2023/07/23 04:19:37;;;;;;;2.13;0.20;;;;;;;14.74;62.28;100584.31;5006378;28;20049;-73
2023/07/23 04:22:04;;;;;;;0.80;0.30;;;;;;;14.78;62.33;100582.41;5008597;28;20062;-73
2023/07/23 04:24:31;;;;;;;4.47;0.20;;;;;;;14.80;62.85;100581.44;5005386;28;20528;-73
2023/07/23 04:26:58;;;;;;;0.50;0.30;;;;;;;14.82;62.79;100583.97;5008247;28;20056;-73
2023/07/23 04:29:25;;;;;;;0.43;0.22;;;;;;;14.84;62.62;100590.06;5008086;28;20050;-73
2023/07/23 04:31:53;;;;;;;1.05;0.22;;;;;;;14.86;62.75;100580.34;5008408;28;20080;-73
2023/07/23 04:34:20;;;;;;;0.65;0.20;;;;;;;14.89;62.66;100590.72;5007722;28;20041;-73
2023/07/23 04:36:51;;;;;;;0.30;0.20;;;;;;;14.94;62.66;100594.03;5007977;28;20042;-74
2023/07/23 04:39:18;;;;;;;3.35;0.30;;;;;;;15.00;62.92;100593.78;5007926;28;20124;-72
2023/07/23 04:41:45;;;;;;;2.10;0.20;;;;;;;15.04;62.54;100590.13;5008223;28;20418;-72
2023/07/23 04:44:12;;;;;;;1.05;0.20;;;;;;;15.13;62.72;100582.78;5008001;28;20057;-73
2023/07/23 04:46:39;;;;;;;2.08;0.30;;;;;;;15.19;62.38;100582.53;5005869;28;20685;-73
2023/07/23 04:49:07;;;;;;;0.50;0.20;;;;;;;15.27;62.42;100586.56;5007886;28;20154;-73
2023/07/23 04:51:34;;;;;;;1.00;0.22;;;;;;;15.36;62.41;100590.59;5005372;28;20509;-73
2023/07/23 04:54:01;;;;;;;0.28;0.20;;;;;;;15.43;62.35;100586.78;5008036;28;20060;-73
2023/07/23 04:56:28;;;;;;;0.70;0.22;;;;;;;15.52;61.75;100586.41;5007328;28;20057;-73
2023/07/23 04:58:55;;;;;;;0.40;0.20;;;;;;;15.61;62.29;100582.53;5008154;28;20419;-73
2023/07/23 05:01:22;;;;;;;1.13;0.20;;;;;;;15.70;62.01;100574.25;5007409;28;20046;-73
2023/07/23 05:03:49;;;;;;;2.45;0.20;;;;;;;15.81;61.88;100575.59;5006801;28;20061;-73
2023/07/23 05:06:17;;;;;;;1.20;0.20;;;;;;;15.91;61.30;100582.19;5007139;28;20050;-72
2023/07/23 05:08:44;;;;;;;1.13;0.30;;;;;;;16.02;61.42;100571.13;5007631;28;20050;-73
2023/07/23 05:11:11;;;;;;;1.65;0.30;;;;;;;16.11;60.90;100574.25;5007664;28;20050;-73
2023/07/23 05:13:38;;;;;;;0.90;0.30;;;;;;;16.21;61.15;100569.41;5007350;28;20792;-72
2023/07/23 05:16:05;;;;;;;2.08;0.30;;;;;;;16.29;60.75;100567.28;5006454;28;20062;-73
2023/07/23 05:18:32;;;;;;;0.80;0.20;;;;;;;16.43;60.50;100577.19;5007463;28;20056;-72
2023/07/23 05:20:59;;;;;;;0.73;0.20;;;;;;;16.54;60.27;100576.72;5007607;28;20056;-73
2023/07/23 05:23:27;;;;;;;1.50;0.20;;;;;;;16.65;59.93;100579.69;5007426;28;20053;-73
2023/07/23 05:25:56;;;;;;;1.10;0.20;;;;;;;16.77;59.65;100570.38;5006663;28;20056;-72
2023/07/23 05:28:22;;;;;;;0.40;0.22;;;;;;;16.89;59.41;100576.84;5007475;28;20049;-73
2023/07/23 05:30:49;;;;;;;1.42;0.22;;;;;;;16.97;59.20;100566.78;5007388;28;20073;-72
2023/07/23 05:33:16;;;;;;;3.53;0.30;;;;;;;17.11;59.00;100572.25;5007432;28;20056;-72
2023/07/23 05:35:43;;;;;;;1.38;0.20;;;;;;;17.21;58.62;100570.84;5006240;28;20414;-73
2023/07/23 05:38:10;;;;;;;0.50;0.20;;;;;;;17.31;58.62;100568.63;5006053;28;20052;-73
2023/07/23 05:40:38;;;;;;;2.45;0.55;;;;;;;17.39;57.90;100566.47;5007903;28;20053;-74
2023/07/23 05:43:13;;;;;;;2.33;0.20;;;;;;;17.48;57.73;100568.63;5007878;28;20049;-74
2023/07/23 05:45:40;;;;;;;1.10;0.30;;;;;;;17.36;57.29;100534.06;5007218;28;20112;-74
2023/07/23 05:48:07;;;;;;;0.60;0.25;;;;;;;17.66;57.19;100566.84;5007508;28;20056;-74
2023/07/23 05:50:34;;;;;;;0.30;0.20;;;;;;;17.73;57.14;100564.72;5004054;28;20048;-73
2023/07/23 05:53:01;;;;;;;0.60;0.20;;;;;;;17.79;56.79;100566.22;5007283;28;20056;-73
2023/07/23 05:55:28;;;;;;;1.15;0.20;;;;;;;17.87;56.47;100569.34;5007016;28;20054;-74
2023/07/23 05:57:56;;;;;;;0.82;0.20;;;;;;;17.93;56.55;100567.25;5007494;28;20056;-73
2023/07/23 06:00:23;;;;;;;3.15;0.20;;;;;;;17.98;56.11;100569.63;5007049;28;20046;-74
2023/07/23 06:02:50;;;;;;;1.55;0.30;;;;;;;18.03;55.83;100572.88;5007274;28;20050;-73
2023/07/23 06:05:17;;;;;;;0.45;0.20;;;;;;;18.06;55.68;100564.78;5006187;28;20049;-74
2023/07/23 06:07:43;;;;;;;0.60;0.30;;;;;;;18.10;55.62;100562.84;5006096;28;20380;-73
2023/07/23 06:10:11;;;;;;;1.10;0.22;;;;;;;18.13;55.49;100549.44;5005653;28;20078;-73
2023/07/23 06:12:38;;;;;;;2.05;0.20;;;;;;;18.15;55.03;100551.06;5007064;28;20086;-73
2023/07/23 06:15:09;;;;;;;4.38;0.20;;;;;;;18.19;55.10;100557.94;5007251;28;20632;-73
2023/07/23 06:17:36;;;;;;;2.53;0.20;;;;;;;18.23;54.92;100542.75;5006527;28;20081;-73
2023/07/23 06:20:03;;;;;;;1.42;0.28;;;;;;;18.25;54.86;100548.81;5010615;28;20061;-75
2023/07/23 06:22:30;;;;;;;2.17;0.75;;;;;;;18.28;54.71;100550.44;5008445;28;20052;-73
2023/07/23 06:24:57;;;;;;;1.00;0.20;;;;;;;18.29;54.30;100550.34;5010182;28;20129;-73
2023/07/23 06:27:23;;;;;;;2.67;0.45;;;;;;;18.31;54.17;100544.97;5009548;28;20056;-73
2023/07/23 06:29:50;;;;;;;4.13;0.40;;;;;;;18.31;54.03;100551.13;5010676;28;20055;-73
2023/07/23 06:32:19;;;;;;;0.50;0.10;;;;;;;18.32;54.42;100546.69;5010259;28;20049;-73
2023/07/23 06:34:45;;;;;;;0.88;0.20;;;;;;;18.31;54.15;100545.84;5010292;28;20045;-74
2023/07/23 06:37:12;;;;;;;0.95;0.20;;;;;;;18.29;54.22;100546.84;5010371;28;20529;-75
2023/07/23 06:39:39;;;;;;;2.25;0.30;;;;;;;18.30;54.19;100548.53;5010208;28;20052;-73
2023/07/23 06:42:07;;;;;;;0.28;0.20;;;;;;;18.27;53.76;100543.44;5010125;28;20046;-73
2023/07/23 06:44:33;;;;;;;2.17;0.10;;;;;;;18.27;53.91;100546.94;5009979;28;20049;-74
2023/07/23 06:47:00;;;;;;;0.50;0.20;;;;;;;18.27;53.98;100544.31;5010152;28;20053;-73
2023/07/23 06:49:30;;;;;;;3.22;0.20;;;;;;;18.28;54.17;100550.44;5010180;28;20046;-73
2023/07/23 06:51:57;;;;;;;1.38;0.30;;;;;;;18.29;53.96;100544.22;5008944;28;20108;-74
2023/07/23 06:54:24;;;;;;;1.05;0.30;;;;;;;18.30;54.25;100548.53;5010026;28;20050;-74
2023/07/23 06:56:52;;;;;;;1.00;0.20;;;;;;;18.29;54.05;100542.41;5010096;28;20042;-73
2023/07/23 06:59:20;;;;;;;1.95;0.30;;;;;;;18.31;53.67;100550.28;5010004;28;20140;-74
2023/07/23 07:01:47;;;;;;;1.27;0.20;;;;;;;18.30;53.95;100544.13;5009338;28;20064;-73
2023/07/23 07:04:14;;;;;;;0.52;0.20;;;;;;;18.31;53.66;100545.84;5010079;28;20478;-72
2023/07/23 07:06:42;;;;;;;1.80;0.30;;;;;;;18.34;53.40;100550.09;5007477;28;20045;-73
2023/07/23 07:09:09;;;;;;;0.98;0.20;;;;;;;18.37;53.42;100542.00;5008521;28;20046;-73
2023/07/23 07:11:36;;;;;;;0.82;0.20;;;;;;;18.40;53.01;100547.13;5009375;28;20697;-73
2023/07/23 07:14:04;;;;;;;1.50;0.17;;;;;;;18.43;53.15;100544.31;5009972;28;20050;-73
2023/07/23 07:16:31;;;;;;;2.92;0.35;;;;;;;18.49;53.07;100546.59;5009277;28;20441;-73
2023/07/23 07:18:58;;;;;;;1.65;0.20;;;;;;;18.47;52.65;100534.41;5008502;28;20053;-73
2023/07/23 07:21:25;;;;;;;1.42;0.30;;;;;;;18.60;52.37;100549.50;5009289;28;20050;-73
2023/07/23 07:23:53;;;;;;;1.30;0.20;;;;;;;18.65;52.51;100544.84;5009243;28;20046;-73
2023/07/23 07:26:20;;;;;;;1.23;0.20;;;;;;;18.66;51.80;100535.94;5009108;28;20053;-73
2023/07/23 07:28:47;;;;;;;1.00;0.28;;;;;;;18.76;51.86;100544.28;5009089;28;20494;-73
2023/07/23 07:31:15;;;;;;;1.02;0.20;;;;;;;18.82;52.01;100535.97;5008995;28;20050;-73
2023/07/23 07:33:43;;;;;;;0.73;0.17;;;;;;;18.87;52.11;100543.66;5008564;28;20052;-73
2023/07/23 07:36:10;;;;;;;2.10;0.30;;;;;;;18.93;51.85;100542.47;5009114;28;20423;-73
2023/07/23 07:38:37;;;;;;;2.60;0.20;;;;;;;18.99;51.77;100544.75;5009026;28;20136;-73
2023/07/23 07:41:06;;;;;;;1.02;0.20;;;;;;;19.04;51.17;100540.03;5008782;28;20053;-73
2023/07/23 07:43:33;;;;;;;1.95;0.20;;;;;;;19.09;51.07;100538.81;5008812;28;20064;-73
2023/07/23 07:46:02;;;;;;;2.33;0.20;;;;;;;19.17;50.47;100545.50;5009021;28;20305;-73
2023/07/23 07:48:29;;;;;;;1.13;0.20;;;;;;;19.22;50.43;100535.50;5008739;28;20265;-73
2023/07/23 07:51:00;;;;;;;1.27;0.20;;;;;;;19.28;50.52;100535.97;5006713;28;20073;-73
2023/07/23 07:53:27;;;;;;;1.42;0.20;;;;;;;19.34;50.23;100542.72;5005396;28;20605;-73
2023/07/23 07:55:54;;;;;;;0.73;0.30;;;;;;;19.31;49.79;100532.28;5008742;28;20045;-73
2023/07/23 07:58:24;;;;;;;1.58;0.10;;;;;;;19.46;49.55;100547.28;5008213;28;20053;-72
2023/07/23 08:00:54;;;;;;;1.92;0.20;;;;;;;19.53;49.91;100548.63;5008804;28;20046;-74
2023/07/23 08:03:23;;;;;;;0.80;0.35;;;;;;;19.59;49.16;100539.47;5008482;28;20046;-73
2023/07/23 08:05:50;;;;;;;2.17;0.30;;;;;;;19.65;48.55;100536.47;5008638;28;20104;-73
2023/07/23 08:08:23;;;;;;;2.10;0.90;;;;;;;19.73;48.72;100543.97;5008167;28;20588;-74
2023/07/23 08:10:53;;;;;;;3.30;0.20;;;;;;;19.80;48.87;100534.69;5008079;28;20056;-73
2023/07/23 08:13:22;;;;;;;1.17;0.10;;;;;;;19.88;48.62;100532.44;5007903;28;20046;-73
2023/07/23 08:15:49;;;;;;;1.50;0.20;;;;;;;19.97;48.54;100537.16;5008505;28;20528;-73
2023/07/23 08:18:16;;;;;;;0.65;0.30;;;;;;;20.05;48.43;100535.84;5008331;28;20056;-73
2023/07/23 08:20:44;;;;;;;3.22;0.20;;;;;;;20.13;48.42;100525.63;5008625;28;20483;-74
2023/07/23 08:23:11;;;;;;;1.05;0.20;;;;;;;20.21;48.35;100533.97;5006871;28;20403;-73
2023/07/23 08:25:39;;;;;;;3.30;0.30;;;;;;;20.30;48.29;100538.69;5008259;28;20048;-74
2023/07/23 08:28:08;;;;;;;2.85;0.93;;;;;;;20.37;47.74;100534.66;5007949;28;20058;-73
2023/07/23 08:30:37;;;;;;;2.38;0.20;;;;;;;20.43;47.88;100529.00;5008128;28;20049;-74
2023/07/23 08:33:04;;;;;;;0.40;0.20;;;;;;;20.54;47.86;100538.94;5007161;28;20418;-74
2023/07/23 08:35:31;;;;;;;1.10;0.10;;;;;;;20.62;47.89;100533.16;5006552;28;20461;-74
2023/07/23 08:37:59;;;;;;;3.78;0.20;;;;;;;20.68;47.43;100530.09;5007961;28;20042;-75
2023/07/23 08:40:27;;;;;;;2.13;0.20;;;;;;;20.73;47.09;100535.97;5007251;28;20057;-75
2023/07/23 08:43:18;;;;;;;1.38;0.20;;;;;;;20.78;47.38;100536.53;5007584;28;20045;-75
2023/07/23 08:46:09;;;;;;;0.77;0.15;;;;;;;20.84;46.94;100522.84;4979013;28;20061;-74
2023/07/23 08:49:01;;;;;;;0.70;0.20;;;;;;;20.89;46.51;100530.53;5007471;28;20465;-75
2023/07/23 08:51:33;;;;;;;1.65;0.22;;;;;;;20.94;46.66;100533.72;5007641;28;20042;-75
2023/07/23 08:54:00;;;;;;;0.70;0.20;;;;;;;20.99;46.63;100528.09;5007806;28;20057;-75
2023/07/23 08:56:27;;;;;;;1.50;0.40;;;;;;;21.04;46.34;100540.13;5007643;28;20056;-75
2023/07/23 08:58:55;;;;;;;0.65;0.20;;;;;;;21.08;46.24;100533.66;5007543;28;20534;-75
2023/07/23 09:01:24;;;;;;;1.70;0.30;;;;;;;21.14;46.46;100528.88;5007023;28;20062;-74
2023/07/23 09:03:51;;;;;;;2.03;0.20;;;;;;;21.17;46.12;100532.19;5006234;28;20057;-75
2023/07/23 09:06:20;;;;;;;2.10;0.10;;;;;;;21.21;44.59;100531.03;5007850;28;20060;-75
2023/07/23 09:08:46;;;;;;;0.52;0.20;;;;;;;21.25;45.43;100524.56;5007147;28;20052;-75
2023/07/23 09:11:13;;;;;;;4.70;0.13;;;;;;;21.28;44.78;100529.66;5007745;28;20057;-75
2023/07/23 09:13:40;;;;;;;1.15;0.20;;;;;;;21.31;44.65;100529.44;5007481;28;20052;-75
2023/07/23 09:16:07;;;;;;;0.47;0.10;;;;;;;21.36;44.32;100520.34;5007565;28;20064;-75
2023/07/23 09:18:41;;;;;;;0.50;0.10;;;;;;;21.40;43.96;100513.88;5007371;28;20046;-75
2023/07/23 09:21:09;;;;;;;0.50;0.10;;;;;;;21.44;43.71;100521.56;5007964;28;20050;-76
2023/07/23 09:23:36;;;;;;;0.90;0.17;;;;;;;21.48;43.45;100519.53;5003540;28;20507;-76
2023/07/23 09:26:03;;;;;;;1.70;0.20;;;;;;;21.52;43.88;100529.88;5008032;28;20645;-75
2023/07/23 09:28:30;;;;;;;5.32;0.20;;;;;;;21.56;43.54;100526.03;5007144;28;20042;-75
2023/07/23 09:30:58;;;;;;;0.98;0.20;;;;;;;21.62;43.38;100527.41;5007691;28;20133;-76
2023/07/23 09:33:30;;;;;;;1.55;0.20;;;;;;;21.66;43.69;100520.06;5005202;28;20410;-75
2023/07/23 09:36:02;;;;;;;1.83;0.10;;;;;;;21.69;43.52;100512.75;5007532;28;20054;-75
2023/07/23 09:38:29;;;;;;;1.05;0.20;;;;;;;21.73;42.82;100516.03;5006354;28;20421;-75
2023/07/23 09:40:57;;;;;;;0.60;0.10;;;;;;;21.71;43.21;100499.34;5007797;28;20054;-75
2023/07/23 09:43:24;;;;;;;1.95;0.10;;;;;;;21.84;42.63;100510.00;5005980;28;20056;-75
2023/07/23 09:45:52;;;;;;;3.25;0.20;;;;;;;21.87;43.41;100517.75;5007443;28;20052;-75
2023/07/23 09:48:20;;;;;;;0.40;0.10;;;;;;;21.91;42.61;100508.59;5006964;28;20042;-76
2023/07/23 09:50:50;;;;;;;0.30;0.10;;;;;;;21.94;42.21;100511.03;5008314;28;20050;-76
2023/07/23 09:53:19;;;;;;;0.20;0.10;;;;;;;21.97;42.65;100519.66;5011116;28;20728;-75
2023/07/23 09:55:46;;;;;;;0.55;0.13;;;;;;;21.99;42.09;100514.22;5011103;28;20046;-76
2023/07/23 09:58:16;;;;;;;0.60;0.00;;;;;;;22.01;41.87;100502.53;5011146;28;20072;-76
2023/07/23 10:00:44;;;;;;;0.90;0.20;;;;;;;22.05;41.94;100499.63;5010785;28;20050;-76
2023/07/23 10:03:14;;;;;;;0.50;0.10;;;;;;;22.08;41.58;100505.59;5010608;28;20065;-76
2023/07/23 10:05:41;;;;;;;0.35;0.17;;;;;;;22.07;41.66;100509.22;5010781;28;20502;-75
2023/07/23 10:08:09;;;;;;;3.40;0.20;;;;;;;22.08;41.22;100500.25;5010671;28;20042;-75
2023/07/23 10:10:37;;;;;;;0.40;0.20;;;;;;;22.06;41.42;100496.88;5010447;28;20049;-76
2023/07/23 10:13:05;;;;;;;0.40;0.20;;;;;;;22.07;41.31;100498.56;5010813;28;20045;-75
2023/07/23 10:15:33;;;;;;;1.48;0.20;;;;;;;22.10;41.50;100498.34;5010472;28;20060;-76
2023/07/23 10:18:02;;;;;;;0.70;0.10;;;;;;;22.12;41.54;100501.75;5010840;28;20469;-76
2023/07/23 10:20:31;;;;;;;1.52;0.20;;;;;;;22.12;40.37;100499.09;5010464;28;20049;-75
2023/07/23 10:22:59;;;;;;;0.98;0.10;;;;;;;22.10;40.14;100493.03;5009348;28;20050;-75
2023/07/23 10:25:30;;;;;;;1.33;0.55;;;;;;;22.09;40.29;100494.00;5010619;28;20054;-76
2023/07/23 10:28:01;;;;;;;0.98;0.32;;;;;;;22.08;40.79;100494.94;5010678;28;20422;-75
2023/07/23 10:30:28;;;;;;;0.40;0.20;;;;;;;22.08;41.04;100499.41;5009427;28;20530;-76
2023/07/23 10:33:30;;;;;;;0.50;0.20;;;;;;;22.06;40.98;100494.22;5010275;28;20437;-76
2023/07/23 10:36:05;;;;;;;0.80;0.20;;;;;;;22.00;41.50;100505.31;5009920;28;20056;-75
2023/07/23 10:38:34;;;;;;;0.73;0.20;;;;;;;21.98;41.16;100493.91;5010131;28;20045;-75
2023/07/23 10:41:02;;;;;;;1.17;0.17;;;;;;;21.95;41.23;100510.94;5010214;28;20502;-75
2023/07/23 10:43:46;;;;;;;1.75;0.25;;;;;;;21.93;40.84;100496.03;5009766;28;20048;-75
2023/07/23 10:46:15;;;;;;;6.93;1.85;;;;;;;21.90;41.18;100497.09;5009943;28;20088;-75
2023/07/23 10:48:48;;;;;;;1.88;0.30;;;;;;;21.89;40.61;100497.22;5009820;28;20049;-76
2023/07/23 10:51:16;;;;;;;2.17;0.20;;;;;;;21.87;40.49;100491.16;5009851;28;20050;-75
2023/07/23 10:53:54;;;;;;;0.30;0.20;;;;;;;21.85;40.53;100487.75;5009795;28;20054;-74
2023/07/23 10:56:24;;;;;;;0.17;0.10;;;;;;;21.84;39.11;100486.06;5010028;28;20108;-75
2023/07/23 10:58:56;;;;;;;1.50;0.10;;;;;;;21.82;39.64;100487.97;5009899;28;20050;-75
2023/07/23 11:01:24;;;;;;;0.22;0.10;;;;;;;21.81;40.30;100497.75;5009208;28;20046;-76
2023/07/23 11:03:56;;;;;;;0.52;0.20;;;;;;;21.82;40.37;100493.28;5009415;28;20056;-75
2023/07/23 11:06:28;;;;;;;1.27;0.20;;;;;;;21.82;40.22;100493.28;5009757;28;20501;-76
2023/07/23 11:08:57;;;;;;;0.55;0.10;;;;;;;21.82;40.24;100488.81;5008148;28;20049;-75
2023/07/23 11:11:36;;;;;;;2.55;0.13;;;;;;;21.82;40.78;100487.97;5008396;28;20108;-76
2023/07/23 11:14:17;;;;;;;1.98;0.30;;;;;;;21.82;40.64;100490.63;5009546;28;20516;-76
2023/07/23 11:16:45;;;;;;;1.30;0.20;;;;;;;21.83;40.43;100484.34;5008841;28;20112;-75
2023/07/23 11:19:12;;;;;;;0.98;0.10;;;;;;;21.83;40.67;100489.66;5009261;28;20108;-76
2023/07/23 11:21:45;;;;;;;1.85;0.65;;;;;;;21.84;40.59;100488.72;5009556;28;20523;-76
2023/07/23 11:24:12;;;;;;;1.10;0.20;;;;;;;21.83;40.71;100489.66;5008125;28;20061;-75
2023/07/23 11:26:40;;;;;;;1.88;0.30;;;;;;;21.82;40.88;100485.31;5009286;28;20654;-75
2023/07/23 11:29:09;;;;;;;3.60;0.10;;;;;;;21.79;41.16;100479.25;5009270;28;20046;-76